sensor_id;sensor_type;location;lat;lon;timestamp;P1;durP1;ratioP1;P2;durP2;ratioP2
37529;SDS011;23374;52.758;6.872;2023-03-14T00:02:17;9.80;;;2.03;;
37529;SDS011;23374;52.758;6.872;2023-03-14T00:04:37;9.40;;;2.70;;
37529;SDS011;23374;52.758;6.872;2023-03-14T00:06:58;10.47;;;2.63;;
37529;SDS011;23374;52.758;6.872;2023-03-14T00:09:19;8.20;;;2.20;;
37529;SDS011;23374;52.758;6.872;2023-03-14T00:11:40;15.27;;;2.83;;
37529;SDS011;23374;52.758;6.872;2023-03-14T00:14:01;11.37;;;1.93;;
37529;SDS011;23374;52.758;6.872;2023-03-14T00:16:22;13.73;;;2.50;;
37529;SDS011;23374;52.758;6.872;2023-03-14T00:18:42;12.70;;;2.40;;
37529;SDS011;23374;52.758;6.872;2023-03-14T00:21:04;8.53;;;2.20;;
37529;SDS011;23374;52.758;6.872;2023-03-14T00:23:30;9.63;;;2.53;;
37529;SDS011;23374;52.758;6.872;2023-03-14T00:25:51;13.50;;;3.00;;
37529;SDS011;23374;52.758;6.872;2023-03-14T00:28:12;9.10;;;2.23;;
37529;SDS011;23374;52.758;6.872;2023-03-14T00:30:33;11.33;;;2.80;;
37529;SDS011;23374;52.758;6.872;2023-03-14T00:32:53;10.33;;;2.50;;
37529;SDS011;23374;52.758;6.872;2023-03-14T00:35:14;8.07;;;2.50;;
37529;SDS011;23374;52.758;6.872;2023-03-14T00:37:34;12.40;;;2.90;;
37529;SDS011;23374;52.758;6.872;2023-03-14T00:39:55;9.73;;;2.77;;
37529;SDS011;23374;52.758;6.872;2023-03-14T00:42:16;11.83;;;3.03;;
37529;SDS011;23374;52.758;6.872;2023-03-14T00:44:36;8.10;;;2.50;;
37529;SDS011;23374;52.758;6.872;2023-03-14T00:46:57;8.27;;;3.03;;
37529;SDS011;23374;52.758;6.872;2023-03-14T00:49:17;4.33;;;2.70;;
37529;SDS011;23374;52.758;6.872;2023-03-14T00:51:38;10.30;;;3.00;;
37529;SDS011;23374;52.758;6.872;2023-03-14T00:53:59;6.37;;;2.70;;
37529;SDS011;23374;52.758;6.872;2023-03-14T00:56:20;8.57;;;2.77;;
37529;SDS011;23374;52.758;6.872;2023-03-14T00:58:41;9.20;;;2.97;;
37529;SDS011;23374;52.758;6.872;2023-03-14T01:01:09;8.57;;;3.07;;
37529;SDS011;23374;52.758;6.872;2023-03-14T01:03:32;6.90;;;2.53;;
37529;SDS011;23374;52.758;6.872;2023-03-14T01:05:52;8.60;;;3.00;;
37529;SDS011;23374;52.758;6.872;2023-03-14T01:08:13;10.87;;;2.93;;
37529;SDS011;23374;52.758;6.872;2023-03-14T01:10:34;5.03;;;1.63;;
37529;SDS011;23374;52.758;6.872;2023-03-14T01:12:57;5.50;;;1.10;;
37529;SDS011;23374;52.758;6.872;2023-03-14T01:15:18;6.63;;;1.33;;
37529;SDS011;23374;52.758;6.872;2023-03-14T01:17:38;6.67;;;1.43;;
37529;SDS011;23374;52.758;6.872;2023-03-14T01:19:59;3.47;;;1.70;;
37529;SDS011;23374;52.758;6.872;2023-03-14T01:22:20;10.60;;;2.50;;
37529;SDS011;23374;52.758;6.872;2023-03-14T01:24:41;7.27;;;2.37;;
37529;SDS011;23374;52.758;6.872;2023-03-14T01:27:01;9.87;;;3.30;;
37529;SDS011;23374;52.758;6.872;2023-03-14T01:29:21;13.33;;;3.43;;
37529;SDS011;23374;52.758;6.872;2023-03-14T01:31:42;9.90;;;2.73;;
37529;SDS011;23374;52.758;6.872;2023-03-14T01:34:02;14.77;;;3.30;;
37529;SDS011;23374;52.758;6.872;2023-03-14T01:36:22;9.90;;;3.00;;
37529;SDS011;23374;52.758;6.872;2023-03-14T01:38:43;9.83;;;3.40;;
37529;SDS011;23374;52.758;6.872;2023-03-14T01:41:05;10.10;;;3.17;;
37529;SDS011;23374;52.758;6.872;2023-03-14T01:43:27;9.37;;;2.77;;
37529;SDS011;23374;52.758;6.872;2023-03-14T01:46:49;10.37;;;3.43;;
37529;SDS011;23374;52.758;6.872;2023-03-14T01:50:10;13.17;;;3.20;;
37529;SDS011;23374;52.758;6.872;2023-03-14T01:52:34;14.27;;;3.40;;
37529;SDS011;23374;52.758;6.872;2023-03-14T01:55:06;17.53;;;3.63;;
37529;SDS011;23374;52.758;6.872;2023-03-14T01:57:37;5.60;;;2.70;;
37529;SDS011;23374;52.758;6.872;2023-03-14T02:00:18;7.53;;;2.53;;
37529;SDS011;23374;52.758;6.872;2023-03-14T02:02:44;10.83;;;3.47;;
37529;SDS011;23374;52.758;6.872;2023-03-14T02:05:30;11.17;;;3.03;;
37529;SDS011;23374;52.758;6.872;2023-03-14T02:07:55;8.77;;;2.60;;
37529;SDS011;23374;52.758;6.872;2023-03-14T02:10:19;7.67;;;2.27;;
37529;SDS011;23374;52.758;6.872;2023-03-14T02:12:42;6.97;;;2.57;;
37529;SDS011;23374;52.758;6.872;2023-03-14T02:15:04;6.33;;;2.90;;
37529;SDS011;23374;52.758;6.872;2023-03-14T02:17:25;9.27;;;2.33;;
37529;SDS011;23374;52.758;6.872;2023-03-14T02:20:13;12.73;;;2.67;;
37529;SDS011;23374;52.758;6.872;2023-03-14T02:22:45;11.37;;;2.63;;
37529;SDS011;23374;52.758;6.872;2023-03-14T02:28:23;10.80;;;2.70;;
37529;SDS011;23374;52.758;6.872;2023-03-14T02:30:44;11.17;;;2.80;;
37529;SDS011;23374;52.758;6.872;2023-03-14T02:33:13;7.63;;;2.43;;
37529;SDS011;23374;52.758;6.872;2023-03-14T02:35:42;10.17;;;2.50;;
37529;SDS011;23374;52.758;6.872;2023-03-14T02:38:22;6.07;;;1.37;;
37529;SDS011;23374;52.758;6.872;2023-03-14T02:40:55;5.03;;;2.03;;
37529;SDS011;23374;52.758;6.872;2023-03-14T02:43:16;4.87;;;1.60;;
37529;SDS011;23374;52.758;6.872;2023-03-14T02:45:40;4.90;;;1.37;;
37529;SDS011;23374;52.758;6.872;2023-03-14T02:48:09;7.17;;;1.83;;
37529;SDS011;23374;52.758;6.872;2023-03-14T02:50:33;4.40;;;1.73;;
37529;SDS011;23374;52.758;6.872;2023-03-14T02:52:54;6.83;;;1.10;;
37529;SDS011;23374;52.758;6.872;2023-03-14T02:55:14;2.67;;;1.20;;
37529;SDS011;23374;52.758;6.872;2023-03-14T02:57:39;4.83;;;1.67;;
37529;SDS011;23374;52.758;6.872;2023-03-14T03:00:00;6.33;;;1.60;;
37529;SDS011;23374;52.758;6.872;2023-03-14T03:02:22;6.80;;;1.57;;
37529;SDS011;23374;52.758;6.872;2023-03-14T03:04:43;4.27;;;1.47;;
37529;SDS011;23374;52.758;6.872;2023-03-14T03:07:03;7.60;;;1.53;;
37529;SDS011;23374;52.758;6.872;2023-03-14T03:09:24;11.40;;;2.40;;
37529;SDS011;23374;52.758;6.872;2023-03-14T03:11:44;7.27;;;1.80;;
37529;SDS011;23374;52.758;6.872;2023-03-14T03:14:04;3.27;;;1.30;;
37529;SDS011;23374;52.758;6.872;2023-03-14T03:16:25;5.23;;;1.27;;
37529;SDS011;23374;52.758;6.872;2023-03-14T03:18:45;5.47;;;1.73;;
37529;SDS011;23374;52.758;6.872;2023-03-14T03:21:06;4.70;;;1.37;;
37529;SDS011;23374;52.758;6.872;2023-03-14T03:23:28;2.77;;;1.37;;
37529;SDS011;23374;52.758;6.872;2023-03-14T03:25:50;5.40;;;1.40;;
37529;SDS011;23374;52.758;6.872;2023-03-14T03:28:11;4.77;;;1.43;;
37529;SDS011;23374;52.758;6.872;2023-03-14T03:30:31;2.13;;;1.33;;
37529;SDS011;23374;52.758;6.872;2023-03-14T03:32:51;7.47;;;1.50;;
37529;SDS011;23374;52.758;6.872;2023-03-14T03:35:11;6.00;;;1.37;;
37529;SDS011;23374;52.758;6.872;2023-03-14T03:37:32;6.03;;;1.80;;
37529;SDS011;23374;52.758;6.872;2023-03-14T03:39:54;5.70;;;1.63;;
37529;SDS011;23374;52.758;6.872;2023-03-14T03:42:14;4.00;;;1.70;;
37529;SDS011;23374;52.758;6.872;2023-03-14T03:44:35;10.73;;;1.90;;
37529;SDS011;23374;52.758;6.872;2023-03-14T03:46:55;6.63;;;1.83;;
37529;SDS011;23374;52.758;6.872;2023-03-14T03:49:16;6.43;;;1.63;;
37529;SDS011;23374;52.758;6.872;2023-03-14T03:51:36;8.93;;;1.60;;
37529;SDS011;23374;52.758;6.872;2023-03-14T03:53:56;4.60;;;1.30;;
37529;SDS011;23374;52.758;6.872;2023-03-14T03:56:17;6.40;;;1.70;;
37529;SDS011;23374;52.758;6.872;2023-03-14T03:58:37;4.60;;;1.40;;
37529;SDS011;23374;52.758;6.872;2023-03-14T04:00:58;6.50;;;1.20;;
37529;SDS011;23374;52.758;6.872;2023-03-14T04:03:19;5.73;;;1.53;;
37529;SDS011;23374;52.758;6.872;2023-03-14T04:05:39;5.23;;;1.30;;
37529;SDS011;23374;52.758;6.872;2023-03-14T04:08:00;5.70;;;1.50;;
37529;SDS011;23374;52.758;6.872;2023-03-14T04:10:21;4.57;;;1.40;;
37529;SDS011;23374;52.758;6.872;2023-03-14T04:12:41;3.83;;;1.10;;
37529;SDS011;23374;52.758;6.872;2023-03-14T04:15:01;7.47;;;1.97;;
37529;SDS011;23374;52.758;6.872;2023-03-14T04:17:22;2.93;;;1.17;;
37529;SDS011;23374;52.758;6.872;2023-03-14T04:19:42;2.10;;;1.40;;
37529;SDS011;23374;52.758;6.872;2023-03-14T04:22:02;6.57;;;1.97;;
37529;SDS011;23374;52.758;6.872;2023-03-14T04:24:22;4.30;;;1.53;;
37529;SDS011;23374;52.758;6.872;2023-03-14T04:26:43;5.73;;;1.40;;
37529;SDS011;23374;52.758;6.872;2023-03-14T04:29:03;3.30;;;1.63;;
37529;SDS011;23374;52.758;6.872;2023-03-14T04:31:24;7.20;;;1.67;;
37529;SDS011;23374;52.758;6.872;2023-03-14T04:33:44;4.33;;;2.00;;
37529;SDS011;23374;52.758;6.872;2023-03-14T04:36:06;6.03;;;1.87;;
37529;SDS011;23374;52.758;6.872;2023-03-14T04:38:27;5.50;;;1.80;;
37529;SDS011;23374;52.758;6.872;2023-03-14T04:40:47;4.83;;;1.93;;
37529;SDS011;23374;52.758;6.872;2023-03-14T04:43:08;6.90;;;2.40;;
37529;SDS011;23374;52.758;6.872;2023-03-14T04:45:30;6.13;;;2.40;;
37529;SDS011;23374;52.758;6.872;2023-03-14T04:47:51;5.23;;;2.30;;
37529;SDS011;23374;52.758;6.872;2023-03-14T04:50:11;4.97;;;2.43;;
37529;SDS011;23374;52.758;6.872;2023-03-14T04:52:32;5.87;;;2.30;;
37529;SDS011;23374;52.758;6.872;2023-03-14T04:54:52;6.63;;;2.50;;
37529;SDS011;23374;52.758;6.872;2023-03-14T04:57:12;3.63;;;1.97;;
37529;SDS011;23374;52.758;6.872;2023-03-14T04:59:33;4.33;;;2.23;;
37529;SDS011;23374;52.758;6.872;2023-03-14T05:01:53;7.43;;;2.03;;
37529;SDS011;23374;52.758;6.872;2023-03-14T05:04:13;5.13;;;2.00;;
37529;SDS011;23374;52.758;6.872;2023-03-14T05:06:34;6.50;;;2.27;;
37529;SDS011;23374;52.758;6.872;2023-03-14T05:08:54;4.07;;;2.07;;
37529;SDS011;23374;52.758;6.872;2023-03-14T05:11:14;8.30;;;1.73;;
37529;SDS011;23374;52.758;6.872;2023-03-14T05:13:34;8.30;;;2.43;;
37529;SDS011;23374;52.758;6.872;2023-03-14T05:16:03;6.73;;;1.77;;
37529;SDS011;23374;52.758;6.872;2023-03-14T05:18:28;5.37;;;1.80;;
37529;SDS011;23374;52.758;6.872;2023-03-14T05:20:50;5.60;;;1.93;;
37529;SDS011;23374;52.758;6.872;2023-03-14T05:23:11;3.83;;;1.67;;
37529;SDS011;23374;52.758;6.872;2023-03-14T05:25:32;6.13;;;2.40;;
37529;SDS011;23374;52.758;6.872;2023-03-14T05:27:55;5.30;;;2.07;;
37529;SDS011;23374;52.758;6.872;2023-03-14T05:30:15;4.97;;;1.53;;
37529;SDS011;23374;52.758;6.872;2023-03-14T05:32:36;3.07;;;1.87;;
37529;SDS011;23374;52.758;6.872;2023-03-14T05:34:56;2.57;;;1.53;;
37529;SDS011;23374;52.758;6.872;2023-03-14T05:37:19;3.40;;;1.77;;
37529;SDS011;23374;52.758;6.872;2023-03-14T05:39:39;6.60;;;1.73;;
37529;SDS011;23374;52.758;6.872;2023-03-14T05:41:59;5.20;;;1.80;;
37529;SDS011;23374;52.758;6.872;2023-03-14T05:44:19;2.93;;;1.50;;
37529;SDS011;23374;52.758;6.872;2023-03-14T05:46:40;6.97;;;1.40;;
37529;SDS011;23374;52.758;6.872;2023-03-14T05:49:01;9.70;;;1.63;;
37529;SDS011;23374;52.758;6.872;2023-03-14T05:51:22;4.30;;;1.30;;
37529;SDS011;23374;52.758;6.872;2023-03-14T05:53:45;5.70;;;1.20;;
37529;SDS011;23374;52.758;6.872;2023-03-14T05:56:08;3.60;;;1.67;;
37529;SDS011;23374;52.758;6.872;2023-03-14T05:58:30;5.13;;;1.50;;
37529;SDS011;23374;52.758;6.872;2023-03-14T06:00:50;5.60;;;1.57;;
37529;SDS011;23374;52.758;6.872;2023-03-14T06:03:11;8.07;;;1.43;;
37529;SDS011;23374;52.758;6.872;2023-03-14T06:05:32;4.67;;;1.60;;
37529;SDS011;23374;52.758;6.872;2023-03-14T06:07:52;5.07;;;1.43;;
37529;SDS011;23374;52.758;6.872;2023-03-14T06:10:13;7.67;;;1.73;;
37529;SDS011;23374;52.758;6.872;2023-03-14T06:12:33;9.20;;;1.97;;
37529;SDS011;23374;52.758;6.872;2023-03-14T06:14:53;4.93;;;1.53;;
37529;SDS011;23374;52.758;6.872;2023-03-14T06:17:14;4.00;;;1.13;;
37529;SDS011;23374;52.758;6.872;2023-03-14T06:19:34;5.83;;;1.57;;
37529;SDS011;23374;52.758;6.872;2023-03-14T06:21:54;5.60;;;1.47;;
37529;SDS011;23374;52.758;6.872;2023-03-14T06:24:15;4.10;;;1.27;;
37529;SDS011;23374;52.758;6.872;2023-03-14T06:26:35;5.67;;;1.60;;
37529;SDS011;23374;52.758;6.872;2023-03-14T06:28:55;3.53;;;1.30;;
37529;SDS011;23374;52.758;6.872;2023-03-14T06:31:16;6.20;;;2.00;;
37529;SDS011;23374;52.758;6.872;2023-03-14T06:33:36;5.57;;;1.87;;
37529;SDS011;23374;52.758;6.872;2023-03-14T06:35:57;6.00;;;1.60;;
37529;SDS011;23374;52.758;6.872;2023-03-14T06:38:17;6.80;;;1.80;;
37529;SDS011;23374;52.758;6.872;2023-03-14T06:40:38;4.17;;;1.53;;
37529;SDS011;23374;52.758;6.872;2023-03-14T06:42:58;11.10;;;1.90;;
37529;SDS011;23374;52.758;6.872;2023-03-14T06:45:18;4.47;;;1.73;;
37529;SDS011;23374;52.758;6.872;2023-03-14T06:47:38;4.27;;;1.70;;
37529;SDS011;23374;52.758;6.872;2023-03-14T06:49:59;3.83;;;1.63;;
37529;SDS011;23374;52.758;6.872;2023-03-14T06:52:20;8.80;;;2.13;;
37529;SDS011;23374;52.758;6.872;2023-03-14T06:54:40;2.90;;;1.40;;
37529;SDS011;23374;52.758;6.872;2023-03-14T06:57:00;3.53;;;1.67;;
37529;SDS011;23374;52.758;6.872;2023-03-14T06:59:22;2.10;;;1.40;;
37529;SDS011;23374;52.758;6.872;2023-03-14T07:01:42;5.53;;;1.80;;
37529;SDS011;23374;52.758;6.872;2023-03-14T07:04:02;6.27;;;2.00;;
37529;SDS011;23374;52.758;6.872;2023-03-14T07:06:23;5.53;;;2.00;;
37529;SDS011;23374;52.758;6.872;2023-03-14T07:08:44;3.37;;;1.63;;
37529;SDS011;23374;52.758;6.872;2023-03-14T07:11:06;6.13;;;1.93;;
37529;SDS011;23374;52.758;6.872;2023-03-14T07:13:26;8.13;;;2.50;;
37529;SDS011;23374;52.758;6.872;2023-03-14T07:15:47;11.70;;;2.33;;
37529;SDS011;23374;52.758;6.872;2023-03-14T07:18:07;4.53;;;1.70;;
37529;SDS011;23374;52.758;6.872;2023-03-14T07:20:28;5.03;;;2.00;;
37529;SDS011;23374;52.758;6.872;2023-03-14T07:22:49;7.70;;;2.23;;
37529;SDS011;23374;52.758;6.872;2023-03-14T07:25:10;5.10;;;2.03;;
37529;SDS011;23374;52.758;6.872;2023-03-14T07:27:31;2.87;;;1.70;;
37529;SDS011;23374;52.758;6.872;2023-03-14T07:29:52;5.23;;;1.93;;
37529;SDS011;23374;52.758;6.872;2023-03-14T07:32:12;4.70;;;1.63;;
37529;SDS011;23374;52.758;6.872;2023-03-14T07:34:34;7.73;;;1.60;;
37529;SDS011;23374;52.758;6.872;2023-03-14T07:36:55;6.90;;;1.90;;
37529;SDS011;23374;52.758;6.872;2023-03-14T07:39:15;3.90;;;1.47;;
37529;SDS011;23374;52.758;6.872;2023-03-14T07:41:35;3.50;;;2.00;;
37529;SDS011;23374;52.758;6.872;2023-03-14T07:43:55;5.47;;;1.23;;
37529;SDS011;23374;52.758;6.872;2023-03-14T07:46:16;2.07;;;1.20;;
37529;SDS011;23374;52.758;6.872;2023-03-14T07:48:37;2.70;;;1.00;;
37529;SDS011;23374;52.758;6.872;2023-03-14T07:50:57;2.40;;;0.60;;
37529;SDS011;23374;52.758;6.872;2023-03-14T07:53:18;5.87;;;0.90;;
37529;SDS011;23374;52.758;6.872;2023-03-14T07:55:43;1.73;;;0.87;;
37529;SDS011;23374;52.758;6.872;2023-03-14T07:58:04;2.90;;;0.70;;
37529;SDS011;23374;52.758;6.872;2023-03-14T08:00:25;2.63;;;0.40;;
37529;SDS011;23374;52.758;6.872;2023-03-14T08:02:45;0.80;;;0.23;;
37529;SDS011;23374;52.758;6.872;2023-03-14T08:05:07;0.47;;;0.13;;
37529;SDS011;23374;52.758;6.872;2023-03-14T08:07:29;1.87;;;0.40;;
37529;SDS011;23374;52.758;6.872;2023-03-14T08:09:49;4.37;;;0.50;;
37529;SDS011;23374;52.758;6.872;2023-03-14T08:12:09;4.33;;;0.50;;
37529;SDS011;23374;52.758;6.872;2023-03-14T08:14:29;0.30;;;0.30;;
37529;SDS011;23374;52.758;6.872;2023-03-14T08:16:50;4.33;;;0.40;;
37529;SDS011;23374;52.758;6.872;2023-03-14T08:19:11;3.70;;;0.50;;
37529;SDS011;23374;52.758;6.872;2023-03-14T08:21:34;1.53;;;0.23;;
37529;SDS011;23374;52.758;6.872;2023-03-14T08:23:54;2.83;;;0.33;;
37529;SDS011;23374;52.758;6.872;2023-03-14T08:26:15;0.67;;;0.27;;
37529;SDS011;23374;52.758;6.872;2023-03-14T08:28:35;0.60;;;0.20;;
37529;SDS011;23374;52.758;6.872;2023-03-14T08:30:56;1.30;;;0.37;;
37529;SDS011;23374;52.758;6.872;2023-03-14T08:33:17;1.60;;;0.10;;
37529;SDS011;23374;52.758;6.872;2023-03-14T08:35:37;0.40;;;0.20;;
37529;SDS011;23374;52.758;6.872;2023-03-14T08:37:59;1.43;;;0.20;;
37529;SDS011;23374;52.758;6.872;2023-03-14T08:40:19;0.77;;;0.10;;
37529;SDS011;23374;52.758;6.872;2023-03-14T08:42:39;0.03;;;0.03;;
37529;SDS011;23374;52.758;6.872;2023-03-14T08:45:00;0.27;;;0.20;;
37529;SDS011;23374;52.758;6.872;2023-03-14T08:47:20;0.40;;;0.10;;
37529;SDS011;23374;52.758;6.872;2023-03-14T08:49:41;0.27;;;0.20;;
37529;SDS011;23374;52.758;6.872;2023-03-14T08:52:03;0.00;;;0.00;;
37529;SDS011;23374;52.758;6.872;2023-03-14T08:54:24;0.20;;;0.10;;
37529;SDS011;23374;52.758;6.872;2023-03-14T08:56:44;0.77;;;0.20;;
37529;SDS011;23374;52.758;6.872;2023-03-14T08:59:05;1.37;;;0.13;;
37529;SDS011;23374;52.758;6.872;2023-03-14T09:01:25;0.57;;;0.20;;
37529;SDS011;23374;52.758;6.872;2023-03-14T09:03:45;0.10;;;0.07;;
37529;SDS011;23374;52.758;6.872;2023-03-14T09:06:09;2.43;;;0.20;;
37529;SDS011;23374;52.758;6.872;2023-03-14T09:08:29;2.93;;;0.53;;
37529;SDS011;23374;52.758;6.872;2023-03-14T09:10:49;2.43;;;0.30;;
37529;SDS011;23374;52.758;6.872;2023-03-14T09:13:10;0.07;;;0.00;;
37529;SDS011;23374;52.758;6.872;2023-03-14T09:15:30;0.10;;;0.10;;
37529;SDS011;23374;52.758;6.872;2023-03-14T09:17:50;1.10;;;0.30;;
37529;SDS011;23374;52.758;6.872;2023-03-14T09:20:12;0.43;;;0.43;;
37529;SDS011;23374;52.758;6.872;2023-03-14T09:22:36;0.40;;;0.20;;
37529;SDS011;23374;52.758;6.872;2023-03-14T09:24:56;0.33;;;0.10;;
37529;SDS011;23374;52.758;6.872;2023-03-14T09:27:16;1.27;;;0.27;;
37529;SDS011;23374;52.758;6.872;2023-03-14T09:29:37;0.50;;;0.20;;
37529;SDS011;23374;52.758;6.872;2023-03-14T09:31:58;2.20;;;0.17;;
37529;SDS011;23374;52.758;6.872;2023-03-14T09:34:19;1.83;;;0.60;;
37529;SDS011;23374;52.758;6.872;2023-03-14T09:36:39;4.37;;;0.57;;
37529;SDS011;23374;52.758;6.872;2023-03-14T09:38:59;6.73;;;0.47;;
37529;SDS011;23374;52.758;6.872;2023-03-14T09:42:23;2.73;;;0.40;;
37529;SDS011;23374;52.758;6.872;2023-03-14T09:44:59;0.73;;;0.33;;
37529;SDS011;23374;52.758;6.872;2023-03-14T09:47:25;4.70;;;0.30;;
37529;SDS011;23374;52.758;6.872;2023-03-14T09:49:47;3.40;;;0.60;;
37529;SDS011;23374;52.758;6.872;2023-03-14T09:52:52;1.97;;;0.40;;
37529;SDS011;23374;52.758;6.872;2023-03-14T09:55:20;2.03;;;0.73;;
37529;SDS011;23374;52.758;6.872;2023-03-14T09:57:42;4.37;;;0.47;;
37529;SDS011;23374;52.758;6.872;2023-03-14T10:00:18;1.13;;;0.53;;
37529;SDS011;23374;52.758;6.872;2023-03-14T10:07:09;2.93;;;0.97;;
37529;SDS011;23374;52.758;6.872;2023-03-14T10:09:35;10.97;;;0.97;;
37529;SDS011;23374;52.758;6.872;2023-03-14T10:11:56;0.83;;;0.50;;
37529;SDS011;23374;52.758;6.872;2023-03-14T10:14:29;5.47;;;0.70;;
37529;SDS011;23374;52.758;6.872;2023-03-14T10:16:54;5.67;;;0.80;;
37529;SDS011;23374;52.758;6.872;2023-03-14T10:19:16;6.80;;;1.13;;
37529;SDS011;23374;52.758;6.872;2023-03-14T10:21:41;5.97;;;0.90;;
37529;SDS011;23374;52.758;6.872;2023-03-14T10:24:26;9.20;;;1.47;;
37529;SDS011;23374;52.758;6.872;2023-03-14T10:26:57;7.63;;;1.20;;
37529;SDS011;23374;52.758;6.872;2023-03-14T10:29:22;19.90;;;2.03;;
37529;SDS011;23374;52.758;6.872;2023-03-14T10:31:52;6.10;;;1.10;;
37529;SDS011;23374;52.758;6.872;2023-03-14T10:35:42;7.30;;;1.47;;
37529;SDS011;23374;52.758;6.872;2023-03-14T10:38:03;3.90;;;1.13;;
37529;SDS011;23374;52.758;6.872;2023-03-14T10:40:39;8.03;;;1.27;;
37529;SDS011;23374;52.758;6.872;2023-03-14T10:43:11;5.70;;;0.80;;
37529;SDS011;23374;52.758;6.872;2023-03-14T10:45:43;7.90;;;1.07;;
37529;SDS011;23374;52.758;6.872;2023-03-14T10:48:34;11.30;;;1.33;;
37529;SDS011;23374;52.758;6.872;2023-03-14T10:51:07;2.70;;;1.10;;
37529;SDS011;23374;52.758;6.872;2023-03-14T10:53:46;4.83;;;0.87;;
37529;SDS011;23374;52.758;6.872;2023-03-14T10:56:17;10.73;;;1.33;;
37529;SDS011;23374;52.758;6.872;2023-03-14T10:58:46;5.37;;;0.93;;
37529;SDS011;23374;52.758;6.872;2023-03-14T11:01:36;6.37;;;1.60;;
37529;SDS011;23374;52.758;6.872;2023-03-14T11:10:38;10.13;;;1.40;;
37529;SDS011;23374;52.758;6.872;2023-03-14T11:13:26;6.13;;;1.37;;
37529;SDS011;23374;52.758;6.872;2023-03-14T11:16:14;11.27;;;1.83;;
37529;SDS011;23374;52.758;6.872;2023-03-14T11:20:12;4.40;;;1.40;;
37529;SDS011;23374;52.758;6.872;2023-03-14T11:23:01;9.10;;;1.20;;
37529;SDS011;23374;52.758;6.872;2023-03-14T11:26:09;6.13;;;1.10;;
37529;SDS011;23374;52.758;6.872;2023-03-14T11:35:28;10.33;;;1.83;;
37529;SDS011;23374;52.758;6.872;2023-03-14T11:38:00;7.47;;;1.33;;
37529;SDS011;23374;52.758;6.872;2023-03-14T11:40:48;22.13;;;1.47;;
37529;SDS011;23374;52.758;6.872;2023-03-14T11:43:26;9.37;;;0.90;;
37529;SDS011;23374;52.758;6.872;2023-03-14T11:46:19;2.83;;;0.70;;
37529;SDS011;23374;52.758;6.872;2023-03-14T11:50:35;4.83;;;0.97;;
37529;SDS011;23374;52.758;6.872;2023-03-14T11:53:43;3.93;;;1.00;;
37529;SDS011;23374;52.758;6.872;2023-03-14T11:58:51;7.63;;;1.10;;
37529;SDS011;23374;52.758;6.872;2023-03-14T12:01:18;5.67;;;0.93;;
37529;SDS011;23374;52.758;6.872;2023-03-14T12:03:45;5.13;;;0.70;;
37529;SDS011;23374;52.758;6.872;2023-03-14T12:06:37;10.37;;;1.07;;
37529;SDS011;23374;52.758;6.872;2023-03-14T12:09:06;3.10;;;0.60;;
37529;SDS011;23374;52.758;6.872;2023-03-14T12:11:47;3.33;;;0.60;;
37529;SDS011;23374;52.758;6.872;2023-03-14T12:14:36;8.73;;;1.33;;
37529;SDS011;23374;52.758;6.872;2023-03-14T12:17:21;7.73;;;1.10;;
37529;SDS011;23374;52.758;6.872;2023-03-14T12:19:48;9.63;;;0.80;;
37529;SDS011;23374;52.758;6.872;2023-03-14T12:22:26;2.70;;;0.57;;
37529;SDS011;23374;52.758;6.872;2023-03-14T12:25:05;5.13;;;0.67;;
37529;SDS011;23374;52.758;6.872;2023-03-14T12:27:41;3.27;;;0.70;;
37529;SDS011;23374;52.758;6.872;2023-03-14T12:32:27;5.07;;;0.80;;
37529;SDS011;23374;52.758;6.872;2023-03-14T12:34:47;8.10;;;1.17;;
37529;SDS011;23374;52.758;6.872;2023-03-14T12:37:53;1.03;;;0.50;;
37529;SDS011;23374;52.758;6.872;2023-03-14T12:40:30;5.20;;;0.50;;
37529;SDS011;23374;52.758;6.872;2023-03-14T12:42:58;0.63;;;0.50;;
37529;SDS011;23374;52.758;6.872;2023-03-14T12:45:31;4.03;;;0.47;;
37529;SDS011;23374;52.758;6.872;2023-03-14T12:48:28;1.33;;;0.57;;
37529;SDS011;23374;52.758;6.872;2023-03-14T12:51:43;3.17;;;0.60;;
37529;SDS011;23374;52.758;6.872;2023-03-14T12:54:21;1.37;;;1.03;;
37529;SDS011;23374;52.758;6.872;2023-03-14T12:57:09;2.23;;;0.60;;
37529;SDS011;23374;52.758;6.872;2023-03-14T13:00:20;7.93;;;1.17;;
37529;SDS011;23374;52.758;6.872;2023-03-14T13:02:44;7.27;;;0.77;;
37529;SDS011;23374;52.758;6.872;2023-03-14T13:08:09;4.97;;;0.70;;
37529;SDS011;23374;52.758;6.872;2023-03-14T13:10:42;2.90;;;0.90;;
37529;SDS011;23374;52.758;6.872;2023-03-14T13:13:24;1.03;;;0.40;;
37529;SDS011;23374;52.758;6.872;2023-03-14T13:15:47;5.37;;;0.80;;
37529;SDS011;23374;52.758;6.872;2023-03-14T13:18:16;2.47;;;0.67;;
37529;SDS011;23374;52.758;6.872;2023-03-14T13:20:51;4.27;;;0.70;;
37529;SDS011;23374;52.758;6.872;2023-03-14T13:23:24;2.33;;;0.77;;
37529;SDS011;23374;52.758;6.872;2023-03-14T13:25:46;4.77;;;0.70;;
37529;SDS011;23374;52.758;6.872;2023-03-14T13:28:09;0.93;;;0.63;;
37529;SDS011;23374;52.758;6.872;2023-03-14T13:30:40;3.90;;;0.90;;
37529;SDS011;23374;52.758;6.872;2023-03-14T13:33:04;0.87;;;0.30;;
37529;SDS011;23374;52.758;6.872;2023-03-14T13:35:27;1.13;;;0.40;;
37529;SDS011;23374;52.758;6.872;2023-03-14T13:38:00;0.80;;;0.37;;
37529;SDS011;23374;52.758;6.872;2023-03-14T13:40:28;8.43;;;1.30;;
37529;SDS011;23374;52.758;6.872;2023-03-14T13:43:41;8.30;;;1.10;;
37529;SDS011;23374;52.758;6.872;2023-03-14T13:46:15;2.83;;;0.50;;
37529;SDS011;23374;52.758;6.872;2023-03-14T13:48:54;3.87;;;0.60;;
37529;SDS011;23374;52.758;6.872;2023-03-14T13:51:18;3.40;;;0.70;;
37529;SDS011;23374;52.758;6.872;2023-03-14T13:53:44;2.60;;;0.60;;
37529;SDS011;23374;52.758;6.872;2023-03-14T13:56:09;5.93;;;0.90;;
37529;SDS011;23374;52.758;6.872;2023-03-14T13:58:31;4.13;;;1.03;;
37529;SDS011;23374;52.758;6.872;2023-03-14T14:01:13;6.60;;;1.00;;
37529;SDS011;23374;52.758;6.872;2023-03-14T14:03:55;2.73;;;0.97;;
37529;SDS011;23374;52.758;6.872;2023-03-14T14:06:36;3.07;;;0.73;;
37529;SDS011;23374;52.758;6.872;2023-03-14T14:09:00;2.37;;;0.70;;
37529;SDS011;23374;52.758;6.872;2023-03-14T14:12:57;4.07;;;0.60;;
37529;SDS011;23374;52.758;6.872;2023-03-14T14:15:33;1.93;;;1.00;;
37529;SDS011;23374;52.758;6.872;2023-03-14T14:18:02;4.87;;;0.90;;
37529;SDS011;23374;52.758;6.872;2023-03-14T14:20:45;4.23;;;0.50;;
37529;SDS011;23374;52.758;6.872;2023-03-14T14:23:20;2.63;;;0.10;;
37529;SDS011;23374;52.758;6.872;2023-03-14T14:25:48;5.70;;;0.70;;
37529;SDS011;23374;52.758;6.872;2023-03-14T14:28:29;0.93;;;0.70;;
37529;SDS011;23374;52.758;6.872;2023-03-14T14:34:04;1.27;;;0.40;;
37529;SDS011;23374;52.758;6.872;2023-03-14T14:36:40;1.17;;;0.60;;
37529;SDS011;23374;52.758;6.872;2023-03-14T14:39:38;4.13;;;0.50;;
37529;SDS011;23374;52.758;6.872;2023-03-14T14:41:59;2.30;;;0.70;;
37529;SDS011;23374;52.758;6.872;2023-03-14T14:44:28;2.87;;;0.33;;
37529;SDS011;23374;52.758;6.872;2023-03-14T14:46:51;3.77;;;0.63;;
37529;SDS011;23374;52.758;6.872;2023-03-14T14:49:14;3.43;;;0.57;;
37529;SDS011;23374;52.758;6.872;2023-03-14T14:51:43;3.03;;;0.87;;
37529;SDS011;23374;52.758;6.872;2023-03-14T14:54:13;2.80;;;0.43;;
37529;SDS011;23374;52.758;6.872;2023-03-14T14:56:37;7.93;;;1.00;;
37529;SDS011;23374;52.758;6.872;2023-03-14T14:58:59;4.53;;;0.53;;
37529;SDS011;23374;52.758;6.872;2023-03-14T15:01:23;2.97;;;0.83;;
37529;SDS011;23374;52.758;6.872;2023-03-14T15:03:48;1.13;;;0.33;;
37529;SDS011;23374;52.758;6.872;2023-03-14T15:06:14;2.67;;;0.70;;
37529;SDS011;23374;52.758;6.872;2023-03-14T15:08:36;4.97;;;0.67;;
37529;SDS011;23374;52.758;6.872;2023-03-14T15:10:57;3.90;;;0.87;;
37529;SDS011;23374;52.758;6.872;2023-03-14T15:13:18;5.17;;;0.90;;
37529;SDS011;23374;52.758;6.872;2023-03-14T15:15:38;1.03;;;0.43;;
37529;SDS011;23374;52.758;6.872;2023-03-14T15:17:59;3.83;;;0.63;;